createdAt,value
2023-05-05T00:02:57.811Z,3.80
2023-05-05T00:08:59.765Z,3.42
2023-05-05T00:15:01.630Z,4.28
2023-05-05T00:21:04.529Z,3.83
2023-05-05T00:27:06.497Z,3.85
2023-05-05T00:33:11.145Z,3.28
2023-05-05T00:39:13.199Z,3.67
2023-05-05T00:45:16.265Z,3.75
2023-05-05T00:51:19.949Z,3.78
2023-05-05T00:57:21.896Z,4.10
2023-05-05T01:03:26.328Z,5.72
2023-05-05T01:09:44.030Z,4.40
2023-05-05T01:15:56.676Z,3.63
2023-05-05T01:22:02.240Z,3.40
2023-05-05T01:28:11.621Z,4.00
2023-05-05T01:34:16.677Z,3.58
2023-05-05T01:40:25.304Z,3.35
2023-05-05T01:46:27.845Z,3.58
2023-05-05T01:52:33.450Z,3.10
2023-05-05T01:58:36.284Z,3.08
2023-05-05T02:04:43.558Z,3.20
2023-05-05T02:10:47.789Z,3.33
2023-05-05T02:16:51.234Z,3.22
2023-05-05T02:22:54.099Z,3.43
2023-05-05T02:29:07.478Z,3.10
2023-05-05T02:35:19.897Z,3.53
2023-05-05T02:41:23.270Z,3.53
2023-05-05T02:47:38.422Z,2.90
2023-05-05T02:53:40.363Z,3.35
2023-05-05T02:59:48.726Z,3.75
2023-05-05T03:06:07.371Z,3.10
2023-05-05T03:12:13.691Z,3.20
2023-05-05T03:18:18.230Z,3.28
2023-05-05T03:24:21.241Z,2.78
2023-05-05T03:30:22.972Z,2.85
2023-05-05T03:36:25.770Z,3.10
2023-05-05T03:42:28.930Z,2.83
2023-05-05T03:48:30.891Z,3.00
2023-05-05T03:54:32.718Z,3.20
2023-05-05T04:00:34.695Z,3.00
2023-05-05T04:06:36.767Z,2.75
2023-05-05T04:12:38.729Z,2.70
2023-05-05T04:18:40.528Z,2.80
2023-05-05T04:24:42.234Z,2.78
2023-05-05T04:30:43.974Z,2.63
2023-05-05T04:36:45.942Z,2.65
2023-05-05T04:42:47.751Z,2.85
2023-05-05T04:48:49.491Z,3.20
2023-05-05T04:54:51.247Z,3.33
2023-05-05T05:00:53.022Z,4.63
2023-05-05T05:06:56.211Z,2.88
2023-05-05T05:13:00.253Z,3.50
2023-05-05T05:19:02.127Z,3.65
2023-05-05T05:25:04.245Z,3.80
2023-05-05T05:31:06.883Z,2.88
2023-05-05T05:37:08.694Z,3.10
2023-05-05T05:43:10.672Z,2.65
2023-05-05T05:49:12.477Z,2.70
2023-05-05T05:55:14.269Z,3.40
2023-05-05T06:01:16.182Z,2.78
2023-05-05T06:07:18.244Z,3.63
2023-05-05T06:13:20.362Z,3.63
2023-05-05T06:19:22.207Z,3.42
2023-05-05T06:25:24.027Z,3.50
2023-05-05T06:31:27.936Z,3.80
2023-05-05T06:37:29.847Z,3.08
2023-05-05T06:43:31.629Z,4.40
2023-05-05T06:49:33.820Z,3.63
2023-05-05T06:55:35.584Z,3.03
2023-05-05T07:01:37.585Z,4.10
2023-05-05T07:07:49.753Z,4.18
2023-05-05T07:13:51.568Z,4.97
2023-05-05T07:19:54.994Z,6.13
2023-05-05T07:25:56.878Z,7.10
2023-05-05T07:31:58.716Z,8.20
2023-05-05T07:38:00.570Z,7.97
2023-05-05T07:44:02.482Z,8.18
2023-05-05T07:50:04.735Z,6.70
2023-05-05T07:56:07.860Z,8.07
2023-05-05T08:02:15.489Z,9.55
2023-05-05T08:08:17.476Z,9.25
2023-05-05T08:14:19.275Z,9.80
2023-05-05T08:20:21.784Z,9.07
2023-05-05T08:26:23.795Z,9.02
2023-05-05T08:32:29.756Z,8.60
2023-05-05T08:38:32.218Z,8.73
2023-05-05T08:44:34.086Z,7.15
2023-05-05T08:50:39.476Z,7.40
2023-05-05T08:56:42.097Z,6.55
2023-05-05T09:02:44.866Z,7.57
2023-05-05T09:08:47.055Z,8.10
2023-05-05T09:14:48.895Z,8.30
2023-05-05T09:20:50.811Z,8.77
2023-05-05T09:26:55.989Z,7.47
2023-05-05T09:33:00.476Z,8.90
2023-05-05T09:39:06.464Z,9.10
2023-05-05T09:45:28.626Z,7.65
2023-05-05T09:51:31.772Z,8.48
2023-05-05T09:57:34.196Z,8.80
2023-05-05T10:03:51.472Z,8.75
2023-05-05T10:09:53.244Z,7.28
2023-05-05T10:15:56.719Z,9.13
2023-05-05T10:22:03.874Z,8.55
2023-05-05T10:28:09.730Z,8.43
2023-05-05T10:34:20.961Z,10.13
2023-05-05T10:40:25.233Z,12.00
2023-05-05T10:46:28.757Z,12.63
2023-05-05T10:53:03.411Z,11.15
2023-05-05T10:59:37.238Z,11.70
2023-05-05T11:06:04.717Z,13.55
2023-05-05T11:12:07.154Z,14.45
2023-05-05T11:18:37.760Z,12.95
2023-05-05T11:24:42.744Z,11.93
2023-05-05T11:31:15.978Z,13.65
2023-05-05T11:37:18.010Z,13.15
2023-05-05T11:43:19.816Z,11.88
2023-05-05T11:49:28.779Z,12.95
2023-05-05T11:55:30.691Z,12.35
2023-05-05T12:01:33.668Z,13.27
2023-05-05T12:07:35.608Z,12.52
2023-05-05T12:13:37.566Z,9.75
2023-05-05T12:19:46.339Z,7.50
2023-05-05T12:25:48.116Z,10.00
2023-05-05T12:31:49.890Z,9.18
2023-05-05T12:37:51.656Z,12.20
2023-05-05T12:43:57.627Z,11.13
2023-05-05T12:50:00.529Z,11.18
2023-05-05T12:56:03.149Z,9.52
2023-05-05T13:02:05.122Z,11.17
2023-05-05T13:08:07.164Z,11.40
2023-05-05T13:14:09.008Z,13.40
2023-05-05T13:20:11.260Z,13.43
2023-05-05T13:26:13.679Z,12.95
2023-05-05T13:32:15.583Z,13.73
2023-05-05T13:38:17.382Z,13.57
2023-05-05T13:44:19.288Z,13.20
2023-05-05T13:50:21.180Z,13.63
2023-05-05T13:56:26.209Z,12.73
2023-05-05T14:02:29.366Z,12.10
2023-05-05T14:08:31.264Z,12.70
2023-05-05T14:14:33.111Z,10.77
2023-05-05T14:20:35.121Z,10.25
2023-05-05T14:26:36.854Z,10.65
2023-05-05T14:32:38.633Z,11.23
2023-05-05T14:38:40.469Z,10.90
2023-05-05T14:44:42.272Z,11.23
2023-05-05T14:50:46.346Z,10.65
2023-05-05T14:56:48.172Z,13.05
2023-05-05T15:02:50.035Z,14.20
2023-05-05T15:08:51.872Z,11.15
2023-05-05T15:14:55.333Z,6.72
2023-05-05T15:20:58.097Z,6.10
2023-05-05T15:26:59.868Z,3.25
2023-05-05T15:33:02.894Z,3.40
2023-05-05T15:39:04.773Z,3.30
2023-05-05T15:45:08.232Z,3.40
2023-05-05T15:51:12.438Z,3.50
2023-05-05T15:57:14.274Z,3.67
2023-05-05T16:03:16.271Z,3.10
2023-05-05T16:09:18.162Z,3.08
2023-05-05T16:15:20.165Z,2.50
2023-05-05T16:21:22.004Z,3.30
2023-05-05T16:27:24.516Z,2.42
2023-05-05T16:33:26.354Z,1.90
2023-05-05T16:39:28.431Z,2.30
2023-05-05T16:45:30.480Z,2.25
2023-05-05T16:51:32.261Z,2.13
2023-05-05T16:57:34.073Z,1.92
2023-05-05T17:03:35.982Z,1.65
2023-05-05T17:09:37.888Z,2.13
2023-05-05T17:15:40.559Z,1.70
2023-05-05T17:21:45.689Z,1.67
2023-05-05T17:27:47.593Z,3.65
2023-05-05T17:33:49.394Z,1.60
2023-05-05T17:39:51.260Z,1.45
2023-05-05T17:45:53.217Z,1.60
2023-05-05T17:51:55.127Z,2.00
2023-05-05T17:57:58.935Z,1.80
2023-05-05T18:04:00.796Z,2.10
2023-05-05T18:10:02.585Z,2.00
2023-05-05T18:16:05.726Z,1.90
2023-05-05T18:22:07.620Z,2.40
2023-05-05T18:28:09.411Z,2.45
2023-05-05T18:34:11.185Z,2.35
2023-05-05T18:40:14.239Z,2.50
2023-05-05T18:46:16.201Z,3.00
2023-05-05T18:52:18.026Z,3.00
2023-05-05T18:58:19.984Z,3.20
2023-05-05T19:04:30.791Z,3.65
2023-05-05T19:10:33.397Z,4.00
2023-05-05T19:16:35.629Z,3.88
2023-05-05T19:22:37.550Z,4.13
2023-05-05T19:28:39.343Z,3.30
2023-05-05T19:34:42.360Z,3.60
2023-05-05T19:40:44.202Z,3.72
2023-05-05T19:46:46.165Z,3.90
2023-05-05T19:52:47.891Z,4.22
2023-05-05T19:58:58.951Z,4.15
2023-05-05T20:05:01.037Z,4.50
2023-05-05T20:11:04.842Z,4.50
2023-05-05T20:17:06.606Z,4.03
2023-05-05T20:23:08.544Z,3.45
2023-05-05T20:29:10.301Z,4.30
2023-05-05T20:35:13.064Z,4.53
2023-05-05T20:41:14.905Z,7.68
2023-05-05T20:47:18.430Z,7.47
2023-05-05T20:53:21.240Z,7.13
2023-05-05T20:59:23.196Z,6.53
2023-05-05T21:05:25.796Z,6.57
2023-05-05T21:11:27.567Z,7.88
2023-05-05T21:17:29.668Z,8.15
2023-05-05T21:23:31.622Z,10.30
2023-05-05T21:29:37.534Z,12.15
2023-05-05T21:35:39.363Z,12.02
2023-05-05T21:41:41.333Z,13.13
2023-05-05T21:47:43.254Z,13.45
2023-05-05T21:53:45.006Z,12.90
2023-05-05T21:59:46.965Z,13.73
2023-05-05T22:05:48.725Z,14.55
2023-05-05T22:11:51.217Z,15.10
2023-05-05T22:17:53.043Z,14.65
2023-05-05T22:23:54.771Z,15.18
2023-05-05T22:29:56.596Z,15.45
2023-05-05T22:35:58.382Z,15.35
2023-05-05T22:42:00.998Z,15.25
2023-05-05T22:48:02.856Z,15.75
2023-05-05T22:54:04.729Z,15.40
2023-05-05T23:00:08.697Z,14.52
2023-05-05T23:06:10.500Z,15.23
2023-05-05T23:12:12.533Z,16.05
2023-05-05T23:18:14.357Z,15.32
2023-05-05T23:24:16.096Z,15.95
2023-05-05T23:30:20.244Z,16.55
2023-05-05T23:36:21.967Z,15.32
2023-05-05T23:42:24.404Z,16.13
2023-05-05T23:48:26.268Z,15.52
2023-05-05T23:54:28.413Z,16.15
